sensor_id;sensor_type;location;lat;lon;timestamp;P1;durP1;ratioP1;P2;durP2;ratioP2
51467;SDS011;37545;45.302;-122.946;2022-10-22T00:00:47;1.35;;;0.57;;
51467;SDS011;37545;45.302;-122.946;2022-10-22T00:03:16;0.88;;;0.63;;
51467;SDS011;37545;45.302;-122.946;2022-10-22T00:05:44;2.03;;;0.68;;
51467;SDS011;37545;45.302;-122.946;2022-10-22T00:08:14;1.15;;;0.63;;
51467;SDS011;37545;45.302;-122.946;2022-10-22T00:10:43;2.00;;;0.75;;
51467;SDS011;37545;45.302;-122.946;2022-10-22T00:13:11;1.30;;;0.50;;
51467;SDS011;37545;45.302;-122.946;2022-10-22T00:15:42;4.53;;;0.68;;
51467;SDS011;37545;45.302;-122.946;2022-10-22T00:18:10;2.50;;;0.60;;
51467;SDS011;37545;45.302;-122.946;2022-10-22T00:20:39;0.60;;;0.40;;
51467;SDS011;37545;45.302;-122.946;2022-10-22T00:23:08;1.38;;;0.52;;
51467;SDS011;37545;45.302;-122.946;2022-10-22T00:25:36;1.27;;;0.50;;
51467;SDS011;37545;45.302;-122.946;2022-10-22T00:28:05;0.95;;;0.60;;
51467;SDS011;37545;45.302;-122.946;2022-10-22T00:30:33;1.67;;;0.50;;
51467;SDS011;37545;45.302;-122.946;2022-10-22T00:33:10;0.65;;;0.32;;
51467;SDS011;37545;45.302;-122.946;2022-10-22T00:35:39;0.68;;;0.40;;
51467;SDS011;37545;45.302;-122.946;2022-10-22T00:38:07;0.82;;;0.30;;
51467;SDS011;37545;45.302;-122.946;2022-10-22T00:40:36;1.30;;;0.40;;
51467;SDS011;37545;45.302;-122.946;2022-10-22T00:43:04;1.48;;;0.43;;
51467;SDS011;37545;45.302;-122.946;2022-10-22T00:45:33;1.13;;;0.75;;
51467;SDS011;37545;45.302;-122.946;2022-10-22T00:48:02;1.98;;;0.55;;
51467;SDS011;37545;45.302;-122.946;2022-10-22T00:50:36;0.60;;;0.40;;
51467;SDS011;37545;45.302;-122.946;2022-10-22T00:53:07;0.90;;;0.60;;
51467;SDS011;37545;45.302;-122.946;2022-10-22T00:55:39;2.38;;;0.82;;
51467;SDS011;37545;45.302;-122.946;2022-10-22T00:58:10;0.52;;;0.47;;
51467;SDS011;37545;45.302;-122.946;2022-10-22T01:00:40;0.57;;;0.47;;
51467;SDS011;37545;45.302;-122.946;2022-10-22T01:03:09;1.42;;;1.00;;
51467;SDS011;37545;45.302;-122.946;2022-10-22T01:05:41;0.82;;;0.43;;
51467;SDS011;37545;45.302;-122.946;2022-10-22T01:08:15;3.13;;;0.70;;
51467;SDS011;37545;45.302;-122.946;2022-10-22T01:10:53;3.70;;;0.93;;
51467;SDS011;37545;45.302;-122.946;2022-10-22T01:13:35;1.50;;;0.90;;
51467;SDS011;37545;45.302;-122.946;2022-10-22T01:16:15;1.50;;;0.80;;
51467;SDS011;37545;45.302;-122.946;2022-10-22T01:18:48;1.50;;;1.10;;
51467;SDS011;37545;45.302;-122.946;2022-10-22T01:21:30;1.75;;;0.93;;
51467;SDS011;37545;45.302;-122.946;2022-10-22T01:24:16;1.63;;;1.17;;
51467;SDS011;37545;45.302;-122.946;2022-10-22T01:27:10;1.33;;;0.80;;
51467;SDS011;37545;45.302;-122.946;2022-10-22T01:29:48;4.28;;;1.48;;
51467;SDS011;37545;45.302;-122.946;2022-10-22T01:32:21;3.38;;;1.65;;
51467;SDS011;37545;45.302;-122.946;2022-10-22T01:34:52;2.08;;;1.17;;
51467;SDS011;37545;45.302;-122.946;2022-10-22T01:37:25;1.20;;;0.90;;
51467;SDS011;37545;45.302;-122.946;2022-10-22T01:39:57;1.77;;;1.27;;
51467;SDS011;37545;45.302;-122.946;2022-10-22T01:42:28;1.45;;;1.10;;
51467;SDS011;37545;45.302;-122.946;2022-10-22T01:44:58;2.28;;;0.82;;
51467;SDS011;37545;45.302;-122.946;2022-10-22T01:47:30;1.40;;;0.95;;
51467;SDS011;37545;45.302;-122.946;2022-10-22T01:53:16;2.15;;;1.45;;
51467;SDS011;37545;45.302;-122.946;2022-10-22T01:55:55;4.63;;;1.73;;
51467;SDS011;37545;45.302;-122.946;2022-10-22T01:58:40;2.42;;;1.60;;
51467;SDS011;37545;45.302;-122.946;2022-10-22T02:01:16;3.08;;;2.05;;
51467;SDS011;37545;45.302;-122.946;2022-10-22T02:03:53;3.08;;;1.35;;
51467;SDS011;37545;45.302;-122.946;2022-10-22T02:06:27;3.38;;;2.08;;
51467;SDS011;37545;45.302;-122.946;2022-10-22T02:08:58;4.18;;;2.42;;
51467;SDS011;37545;45.302;-122.946;2022-10-22T02:11:29;4.63;;;2.47;;
51467;SDS011;37545;45.302;-122.946;2022-10-22T02:13:58;6.50;;;2.83;;
51467;SDS011;37545;45.302;-122.946;2022-10-22T02:16:32;7.77;;;3.57;;
51467;SDS011;37545;45.302;-122.946;2022-10-22T02:19:04;4.60;;;3.17;;
51467;SDS011;37545;45.302;-122.946;2022-10-22T02:21:39;10.77;;;3.53;;
51467;SDS011;37545;45.302;-122.946;2022-10-22T02:24:07;10.65;;;4.40;;
51467;SDS011;37545;45.302;-122.946;2022-10-22T02:26:38;5.47;;;3.60;;
51467;SDS011;37545;45.302;-122.946;2022-10-22T02:29:10;10.77;;;3.78;;
51467;SDS011;37545;45.302;-122.946;2022-10-22T02:34:14;6.38;;;3.53;;
51467;SDS011;37545;45.302;-122.946;2022-10-22T02:36:47;8.82;;;3.78;;
51467;SDS011;37545;45.302;-122.946;2022-10-22T02:39:18;8.68;;;4.15;;
51467;SDS011;37545;45.302;-122.946;2022-10-22T02:41:47;6.97;;;3.65;;
51467;SDS011;37545;45.302;-122.946;2022-10-22T02:44:19;7.03;;;3.85;;
51467;SDS011;37545;45.302;-122.946;2022-10-22T02:49:18;7.50;;;4.40;;
51467;SDS011;37545;45.302;-122.946;2022-10-22T02:51:46;6.25;;;3.38;;
51467;SDS011;37545;45.302;-122.946;2022-10-22T02:54:15;8.32;;;4.60;;
51467;SDS011;37545;45.302;-122.946;2022-10-22T02:56:43;4.80;;;3.45;;
51467;SDS011;37545;45.302;-122.946;2022-10-22T02:59:12;8.38;;;4.50;;
51467;SDS011;37545;45.302;-122.946;2022-10-22T03:01:40;7.25;;;4.15;;
51467;SDS011;37545;45.302;-122.946;2022-10-22T03:04:10;5.35;;;3.75;;
51467;SDS011;37545;45.302;-122.946;2022-10-22T03:06:39;7.60;;;4.65;;
51467;SDS011;37545;45.302;-122.946;2022-10-22T03:09:09;6.15;;;3.90;;
51467;SDS011;37545;45.302;-122.946;2022-10-22T03:11:37;7.80;;;4.13;;
51467;SDS011;37545;45.302;-122.946;2022-10-22T03:14:06;5.88;;;3.70;;
51467;SDS011;37545;45.302;-122.946;2022-10-22T03:16:35;8.10;;;4.38;;
51467;SDS011;37545;45.302;-122.946;2022-10-22T03:19:03;7.18;;;4.25;;
51467;SDS011;37545;45.302;-122.946;2022-10-22T03:21:34;5.43;;;3.38;;
51467;SDS011;37545;45.302;-122.946;2022-10-22T03:24:07;6.15;;;3.53;;
51467;SDS011;37545;45.302;-122.946;2022-10-22T03:26:39;7.97;;;4.10;;
51467;SDS011;37545;45.302;-122.946;2022-10-22T03:29:09;6.15;;;3.83;;
51467;SDS011;37545;45.302;-122.946;2022-10-22T03:31:40;7.55;;;4.65;;
51467;SDS011;37545;45.302;-122.946;2022-10-22T03:34:09;8.35;;;3.95;;
51467;SDS011;37545;45.302;-122.946;2022-10-22T03:36:39;9.68;;;4.55;;
51467;SDS011;37545;45.302;-122.946;2022-10-22T03:39:08;7.80;;;4.00;;
51467;SDS011;37545;45.302;-122.946;2022-10-22T03:41:40;7.82;;;3.67;;
51467;SDS011;37545;45.302;-122.946;2022-10-22T03:44:09;7.43;;;4.45;;
51467;SDS011;37545;45.302;-122.946;2022-10-22T03:46:38;7.88;;;4.30;;
51467;SDS011;37545;45.302;-122.946;2022-10-22T03:49:06;8.52;;;3.55;;
51467;SDS011;37545;45.302;-122.946;2022-10-22T03:51:35;6.90;;;3.05;;
51467;SDS011;37545;45.302;-122.946;2022-10-22T03:54:05;5.50;;;3.28;;
51467;SDS011;37545;45.302;-122.946;2022-10-22T03:56:34;4.80;;;3.05;;
51467;SDS011;37545;45.302;-122.946;2022-10-22T03:59:02;2.60;;;2.05;;
51467;SDS011;37545;45.302;-122.946;2022-10-22T04:01:31;5.50;;;2.28;;
51467;SDS011;37545;45.302;-122.946;2022-10-22T04:03:59;2.92;;;1.50;;
51467;SDS011;37545;45.302;-122.946;2022-10-22T04:06:28;3.92;;;1.70;;
51467;SDS011;37545;45.302;-122.946;2022-10-22T04:08:57;1.85;;;1.17;;
51467;SDS011;37545;45.302;-122.946;2022-10-22T04:11:28;3.17;;;1.45;;
51467;SDS011;37545;45.302;-122.946;2022-10-22T04:13:57;4.00;;;1.23;;
51467;SDS011;37545;45.302;-122.946;2022-10-22T04:16:25;4.47;;;1.13;;
51467;SDS011;37545;45.302;-122.946;2022-10-22T04:18:56;1.60;;;0.65;;
51467;SDS011;37545;45.302;-122.946;2022-10-22T04:21:25;1.13;;;0.80;;
51467;SDS011;37545;45.302;-122.946;2022-10-22T04:23:53;1.85;;;1.05;;
51467;SDS011;37545;45.302;-122.946;2022-10-22T04:26:22;3.75;;;1.10;;
51467;SDS011;37545;45.302;-122.946;2022-10-22T04:28:52;2.92;;;0.73;;
51467;SDS011;37545;45.302;-122.946;2022-10-22T04:31:21;2.20;;;0.90;;
51467;SDS011;37545;45.302;-122.946;2022-10-22T04:33:51;1.98;;;0.95;;
51467;SDS011;37545;45.302;-122.946;2022-10-22T04:36:20;4.13;;;1.05;;
51467;SDS011;37545;45.302;-122.946;2022-10-22T04:38:51;2.88;;;1.00;;
51467;SDS011;37545;45.302;-122.946;2022-10-22T04:41:22;1.27;;;0.65;;
51467;SDS011;37545;45.302;-122.946;2022-10-22T04:43:54;3.53;;;0.82;;
51467;SDS011;37545;45.302;-122.946;2022-10-22T04:46:23;0.40;;;0.40;;
51467;SDS011;37545;45.302;-122.946;2022-10-22T04:48:53;0.82;;;0.60;;
51467;SDS011;37545;45.302;-122.946;2022-10-22T04:51:22;2.45;;;0.90;;
51467;SDS011;37545;45.302;-122.946;2022-10-22T04:53:51;7.50;;;1.20;;
51467;SDS011;37545;45.302;-122.946;2022-10-22T04:56:20;3.67;;;1.60;;
51467;SDS011;37545;45.302;-122.946;2022-10-22T04:58:50;3.33;;;1.67;;
51467;SDS011;37545;45.302;-122.946;2022-10-22T05:01:22;2.53;;;1.45;;
51467;SDS011;37545;45.302;-122.946;2022-10-22T05:03:52;3.72;;;1.48;;
51467;SDS011;37545;45.302;-122.946;2022-10-22T05:06:21;1.30;;;0.80;;
51467;SDS011;37545;45.302;-122.946;2022-10-22T05:08:54;0.82;;;0.47;;
51467;SDS011;37545;45.302;-122.946;2022-10-22T05:11:25;1.88;;;0.57;;
51467;SDS011;37545;45.302;-122.946;2022-10-22T05:13:55;1.10;;;0.73;;
51467;SDS011;37545;45.302;-122.946;2022-10-22T05:16:26;1.55;;;0.45;;
51467;SDS011;37545;45.302;-122.946;2022-10-22T05:18:56;0.32;;;0.20;;
51467;SDS011;37545;45.302;-122.946;2022-10-22T05:21:26;0.40;;;0.20;;
51467;SDS011;37545;45.302;-122.946;2022-10-22T05:23:55;0.43;;;0.43;;
51467;SDS011;37545;45.302;-122.946;2022-10-22T05:26:25;0.10;;;0.10;;
51467;SDS011;37545;45.302;-122.946;2022-10-22T05:28:58;0.65;;;0.25;;
51467;SDS011;37545;45.302;-122.946;2022-10-22T05:31:28;0.57;;;0.30;;
51467;SDS011;37545;45.302;-122.946;2022-10-22T05:33:57;0.38;;;0.20;;
51467;SDS011;37545;45.302;-122.946;2022-10-22T05:36:25;0.73;;;0.30;;
51467;SDS011;37545;45.302;-122.946;2022-10-22T05:38:55;0.15;;;0.15;;
51467;SDS011;37545;45.302;-122.946;2022-10-22T05:41:25;0.00;;;0.00;;
51467;SDS011;37545;45.302;-122.946;2022-10-22T05:43:54;0.00;;;0.00;;
51467;SDS011;37545;45.302;-122.946;2022-10-22T05:46:23;0.15;;;0.13;;
51467;SDS011;37545;45.302;-122.946;2022-10-22T05:48:55;0.57;;;0.22;;
51467;SDS011;37545;45.302;-122.946;2022-10-22T05:51:25;1.05;;;0.10;;
51467;SDS011;37545;45.302;-122.946;2022-10-22T05:53:56;0.25;;;0.17;;
51467;SDS011;37545;45.302;-122.946;2022-10-22T05:56:26;0.25;;;0.15;;
51467;SDS011;37545;45.302;-122.946;2022-10-22T05:58:56;0.10;;;0.10;;
51467;SDS011;37545;45.302;-122.946;2022-10-22T06:01:26;0.03;;;0.03;;
51467;SDS011;37545;45.302;-122.946;2022-10-22T06:03:58;0.68;;;0.20;;
51467;SDS011;37545;45.302;-122.946;2022-10-22T06:06:28;0.25;;;0.10;;
51467;SDS011;37545;45.302;-122.946;2022-10-22T06:08:59;0.10;;;0.08;;
51467;SDS011;37545;45.302;-122.946;2022-10-22T06:11:30;0.13;;;0.10;;
51467;SDS011;37545;45.302;-122.946;2022-10-22T06:13:59;0.00;;;0.00;;
51467;SDS011;37545;45.302;-122.946;2022-10-22T06:16:28;0.10;;;0.00;;
51467;SDS011;37545;45.302;-122.946;2022-10-22T06:18:59;0.28;;;0.10;;
51467;SDS011;37545;45.302;-122.946;2022-10-22T06:21:28;4.28;;;0.30;;
51467;SDS011;37545;45.302;-122.946;2022-10-22T06:23:57;1.52;;;0.10;;
51467;SDS011;37545;45.302;-122.946;2022-10-22T06:26:26;0.17;;;0.10;;
51467;SDS011;37545;45.302;-122.946;2022-10-22T06:28:55;0.50;;;0.20;;
51467;SDS011;37545;45.302;-122.946;2022-10-22T06:31:25;0.20;;;0.10;;
51467;SDS011;37545;45.302;-122.946;2022-10-22T06:33:55;0.17;;;0.17;;
51467;SDS011;37545;45.302;-122.946;2022-10-22T06:36:25;0.17;;;0.08;;
51467;SDS011;37545;45.302;-122.946;2022-10-22T06:38:54;0.20;;;0.10;;
51467;SDS011;37545;45.302;-122.946;2022-10-22T06:41:23;0.20;;;0.10;;
51467;SDS011;37545;45.302;-122.946;2022-10-22T06:43:52;0.13;;;0.10;;
51467;SDS011;37545;45.302;-122.946;2022-10-22T06:46:22;0.20;;;0.00;;
51467;SDS011;37545;45.302;-122.946;2022-10-22T06:48:51;0.30;;;0.10;;
51467;SDS011;37545;45.302;-122.946;2022-10-22T06:51:20;0.95;;;0.20;;
51467;SDS011;37545;45.302;-122.946;2022-10-22T06:53:50;0.90;;;0.10;;
51467;SDS011;37545;45.302;-122.946;2022-10-22T06:56:21;0.10;;;0.10;;
51467;SDS011;37545;45.302;-122.946;2022-10-22T06:58:51;0.40;;;0.10;;
51467;SDS011;37545;45.302;-122.946;2022-10-22T07:01:21;0.30;;;0.20;;
51467;SDS011;37545;45.302;-122.946;2022-10-22T07:03:51;0.55;;;0.10;;
51467;SDS011;37545;45.302;-122.946;2022-10-22T07:06:20;0.13;;;0.08;;
51467;SDS011;37545;45.302;-122.946;2022-10-22T07:08:52;0.10;;;0.10;;
51467;SDS011;37545;45.302;-122.946;2022-10-22T07:11:21;0.10;;;0.10;;
51467;SDS011;37545;45.302;-122.946;2022-10-22T07:13:52;0.20;;;0.10;;
51467;SDS011;37545;45.302;-122.946;2022-10-22T07:16:21;0.22;;;0.10;;
51467;SDS011;37545;45.302;-122.946;2022-10-22T07:18:50;0.10;;;0.05;;
51467;SDS011;37545;45.302;-122.946;2022-10-22T07:21:19;0.10;;;0.10;;
51467;SDS011;37545;45.302;-122.946;2022-10-22T07:23:47;0.05;;;0.05;;
51467;SDS011;37545;45.302;-122.946;2022-10-22T07:26:17;0.15;;;0.10;;
51467;SDS011;37545;45.302;-122.946;2022-10-22T07:28:46;0.45;;;0.10;;
51467;SDS011;37545;45.302;-122.946;2022-10-22T07:31:15;0.17;;;0.10;;
51467;SDS011;37545;45.302;-122.946;2022-10-22T07:33:45;0.40;;;0.30;;
51467;SDS011;37545;45.302;-122.946;2022-10-22T07:36:14;0.77;;;0.47;;
51467;SDS011;37545;45.302;-122.946;2022-10-22T07:38:43;0.30;;;0.20;;
51467;SDS011;37545;45.302;-122.946;2022-10-22T07:41:13;0.63;;;0.22;;
51467;SDS011;37545;45.302;-122.946;2022-10-22T07:43:43;0.57;;;0.20;;
51467;SDS011;37545;45.302;-122.946;2022-10-22T07:46:12;0.28;;;0.10;;
51467;SDS011;37545;45.302;-122.946;2022-10-22T07:48:40;0.40;;;0.10;;
51467;SDS011;37545;45.302;-122.946;2022-10-22T07:51:09;0.15;;;0.08;;
51467;SDS011;37545;45.302;-122.946;2022-10-22T07:53:38;0.00;;;0.00;;
51467;SDS011;37545;45.302;-122.946;2022-10-22T07:56:06;0.00;;;0.00;;
51467;SDS011;37545;45.302;-122.946;2022-10-22T07:58:35;0.00;;;0.00;;
51467;SDS011;37545;45.302;-122.946;2022-10-22T08:01:05;3.67;;;0.20;;
51467;SDS011;37545;45.302;-122.946;2022-10-22T08:03:34;0.20;;;0.03;;
51467;SDS011;37545;45.302;-122.946;2022-10-22T08:06:03;0.10;;;0.10;;
51467;SDS011;37545;45.302;-122.946;2022-10-22T08:08:31;0.38;;;0.10;;
51467;SDS011;37545;45.302;-122.946;2022-10-22T08:11:00;0.08;;;0.08;;
51467;SDS011;37545;45.302;-122.946;2022-10-22T08:13:29;0.15;;;0.10;;
51467;SDS011;37545;45.302;-122.946;2022-10-22T08:15:58;0.10;;;0.10;;
51467;SDS011;37545;45.302;-122.946;2022-10-22T08:18:29;1.40;;;0.25;;
51467;SDS011;37545;45.302;-122.946;2022-10-22T08:20:57;0.15;;;0.10;;
51467;SDS011;37545;45.302;-122.946;2022-10-22T08:23:26;0.25;;;0.20;;
51467;SDS011;37545;45.302;-122.946;2022-10-22T08:25:55;0.20;;;0.00;;
51467;SDS011;37545;45.302;-122.946;2022-10-22T08:28:24;1.02;;;0.10;;
51467;SDS011;37545;45.302;-122.946;2022-10-22T08:30:54;0.25;;;0.10;;
51467;SDS011;37545;45.302;-122.946;2022-10-22T08:33:23;3.13;;;0.38;;
51467;SDS011;37545;45.302;-122.946;2022-10-22T08:35:53;0.10;;;0.10;;
51467;SDS011;37545;45.302;-122.946;2022-10-22T08:38:22;0.20;;;0.20;;
51467;SDS011;37545;45.302;-122.946;2022-10-22T08:40:51;0.30;;;0.20;;
51467;SDS011;37545;45.302;-122.946;2022-10-22T08:46:24;0.10;;;0.00;;
51467;SDS011;37545;45.302;-122.946;2022-10-22T08:49:08;0.20;;;0.00;;
51467;SDS011;37545;45.302;-122.946;2022-10-22T08:51:44;0.10;;;0.00;;
51467;SDS011;37545;45.302;-122.946;2022-10-22T08:54:15;0.45;;;0.30;;
51467;SDS011;37545;45.302;-122.946;2022-10-22T08:56:53;0.00;;;0.00;;
51467;SDS011;37545;45.302;-122.946;2022-10-22T08:59:32;0.40;;;0.10;;
51467;SDS011;37545;45.302;-122.946;2022-10-22T09:02:26;0.00;;;0.00;;
51467;SDS011;37545;45.302;-122.946;2022-10-22T09:05:05;0.00;;;0.00;;
51467;SDS011;37545;45.302;-122.946;2022-10-22T09:07:50;0.20;;;0.10;;
51467;SDS011;37545;45.302;-122.946;2022-10-22T09:10:19;0.00;;;0.00;;
51467;SDS011;37545;45.302;-122.946;2022-10-22T09:12:52;0.10;;;0.10;;
51467;SDS011;37545;45.302;-122.946;2022-10-22T09:15:21;0.10;;;0.10;;
51467;SDS011;37545;45.302;-122.946;2022-10-22T09:17:53;0.10;;;0.10;;
51467;SDS011;37545;45.302;-122.946;2022-10-22T09:20:34;0.05;;;0.00;;
51467;SDS011;37545;45.302;-122.946;2022-10-22T09:23:18;0.10;;;0.10;;
51467;SDS011;37545;45.302;-122.946;2022-10-22T09:25:52;0.17;;;0.10;;
51467;SDS011;37545;45.302;-122.946;2022-10-22T09:28:23;0.85;;;0.17;;
51467;SDS011;37545;45.302;-122.946;2022-10-22T09:30:52;0.80;;;0.00;;
51467;SDS011;37545;45.302;-122.946;2022-10-22T09:33:23;0.75;;;0.10;;
51467;SDS011;37545;45.302;-122.946;2022-10-22T09:35:53;0.08;;;0.05;;
51467;SDS011;37545;45.302;-122.946;2022-10-22T09:38:29;0.10;;;0.10;;
51467;SDS011;37545;45.302;-122.946;2022-10-22T09:41:00;0.13;;;0.10;;
51467;SDS011;37545;45.302;-122.946;2022-10-22T09:43:29;3.95;;;0.20;;
51467;SDS011;37545;45.302;-122.946;2022-10-22T09:46:01;2.60;;;0.25;;
51467;SDS011;37545;45.302;-122.946;2022-10-22T09:48:31;0.55;;;0.20;;
51467;SDS011;37545;45.302;-122.946;2022-10-22T09:51:04;0.10;;;0.10;;
51467;SDS011;37545;45.302;-122.946;2022-10-22T09:53:46;0.20;;;0.10;;
51467;SDS011;37545;45.302;-122.946;2022-10-22T09:56:24;0.10;;;0.10;;
51467;SDS011;37545;45.302;-122.946;2022-10-22T09:58:54;0.10;;;0.10;;
51467;SDS011;37545;45.302;-122.946;2022-10-22T10:01:24;1.20;;;0.00;;
51467;SDS011;37545;45.302;-122.946;2022-10-22T10:04:00;0.10;;;0.10;;
51467;SDS011;37545;45.302;-122.946;2022-10-22T10:06:31;0.00;;;0.00;;
51467;SDS011;37545;45.302;-122.946;2022-10-22T10:09:04;0.80;;;0.05;;
51467;SDS011;37545;45.302;-122.946;2022-10-22T10:11:41;2.22;;;0.15;;
51467;SDS011;37545;45.302;-122.946;2022-10-22T10:14:14;0.08;;;0.08;;
51467;SDS011;37545;45.302;-122.946;2022-10-22T10:16:51;0.20;;;0.20;;
51467;SDS011;37545;45.302;-122.946;2022-10-22T10:19:35;0.10;;;0.10;;
51467;SDS011;37545;45.302;-122.946;2022-10-22T10:22:18;0.00;;;0.00;;
51467;SDS011;37545;45.302;-122.946;2022-10-22T10:25:05;0.10;;;0.10;;
51467;SDS011;37545;45.302;-122.946;2022-10-22T10:27:46;0.30;;;0.10;;
51467;SDS011;37545;45.302;-122.946;2022-10-22T10:30:23;0.17;;;0.10;;
51467;SDS011;37545;45.302;-122.946;2022-10-22T10:33:04;0.10;;;0.10;;
51467;SDS011;37545;45.302;-122.946;2022-10-22T10:35:47;0.10;;;0.10;;
51467;SDS011;37545;45.302;-122.946;2022-10-22T10:41:21;0.20;;;0.20;;
51467;SDS011;37545;45.302;-122.946;2022-10-22T10:47:00;5.07;;;0.50;;
51467;SDS011;37545;45.302;-122.946;2022-10-22T10:49:39;0.10;;;0.10;;
51467;SDS011;37545;45.302;-122.946;2022-10-22T10:52:12;0.28;;;0.00;;
51467;SDS011;37545;45.302;-122.946;2022-10-22T10:55:01;0.13;;;0.10;;
51467;SDS011;37545;45.302;-122.946;2022-10-22T10:57:45;0.20;;;0.05;;
51467;SDS011;37545;45.302;-122.946;2022-10-22T11:00:24;0.08;;;0.08;;
51467;SDS011;37545;45.302;-122.946;2022-10-22T11:03:03;0.00;;;0.00;;
51467;SDS011;37545;45.302;-122.946;2022-10-22T11:05:51;0.20;;;0.10;;
51467;SDS011;37545;45.302;-122.946;2022-10-22T11:08:23;0.50;;;0.50;;
51467;SDS011;37545;45.302;-122.946;2022-10-22T11:10:58;0.00;;;0.00;;
51467;SDS011;37545;45.302;-122.946;2022-10-22T11:13:39;0.43;;;0.10;;
51467;SDS011;37545;45.302;-122.946;2022-10-22T11:16:16;0.90;;;0.30;;
51467;SDS011;37545;45.302;-122.946;2022-10-22T11:18:51;0.38;;;0.25;;
51467;SDS011;37545;45.302;-122.946;2022-10-22T11:21:27;0.10;;;0.10;;
51467;SDS011;37545;45.302;-122.946;2022-10-22T11:24:02;0.20;;;0.10;;
51467;SDS011;37545;45.302;-122.946;2022-10-22T11:26:41;0.40;;;0.30;;
51467;SDS011;37545;45.302;-122.946;2022-10-22T11:29:16;0.57;;;0.28;;
51467;SDS011;37545;45.302;-122.946;2022-10-22T11:31:49;0.40;;;0.20;;
51467;SDS011;37545;45.302;-122.946;2022-10-22T11:34:21;3.95;;;0.40;;
51467;SDS011;37545;45.302;-122.946;2022-10-22T11:39:26;1.50;;;0.38;;
51467;SDS011;37545;45.302;-122.946;2022-10-22T11:41:58;1.08;;;0.20;;
51467;SDS011;37545;45.302;-122.946;2022-10-22T11:44:30;0.55;;;0.25;;
51467;SDS011;37545;45.302;-122.946;2022-10-22T11:47:15;0.10;;;0.10;;
51467;SDS011;37545;45.302;-122.946;2022-10-22T11:49:55;1.02;;;0.20;;
51467;SDS011;37545;45.302;-122.946;2022-10-22T11:52:39;0.20;;;0.20;;
51467;SDS011;37545;45.302;-122.946;2022-10-22T11:55:29;0.40;;;0.15;;
51467;SDS011;37545;45.302;-122.946;2022-10-22T11:57:59;0.43;;;0.28;;
51467;SDS011;37545;45.302;-122.946;2022-10-22T12:00:50;0.20;;;0.17;;
51467;SDS011;37545;45.302;-122.946;2022-10-22T12:03:22;0.25;;;0.20;;
51467;SDS011;37545;45.302;-122.946;2022-10-22T12:06:07;0.10;;;0.10;;
51467;SDS011;37545;45.302;-122.946;2022-10-22T12:08:45;0.20;;;0.20;;
51467;SDS011;37545;45.302;-122.946;2022-10-22T12:11:20;0.17;;;0.17;;
51467;SDS011;37545;45.302;-122.946;2022-10-22T12:13:54;2.67;;;0.28;;
51467;SDS011;37545;45.302;-122.946;2022-10-22T12:16:42;3.83;;;0.28;;
51467;SDS011;37545;45.302;-122.946;2022-10-22T12:19:12;1.83;;;0.25;;
51467;SDS011;37545;45.302;-122.946;2022-10-22T12:21:44;0.20;;;0.15;;
51467;SDS011;37545;45.302;-122.946;2022-10-22T12:24:16;0.90;;;0.30;;
51467;SDS011;37545;45.302;-122.946;2022-10-22T12:26:47;1.05;;;0.43;;
51467;SDS011;37545;45.302;-122.946;2022-10-22T12:29:17;0.28;;;0.17;;
51467;SDS011;37545;45.302;-122.946;2022-10-22T12:31:49;0.35;;;0.28;;
51467;SDS011;37545;45.302;-122.946;2022-10-22T12:34:20;0.20;;;0.13;;
51467;SDS011;37545;45.302;-122.946;2022-10-22T12:36:50;1.07;;;0.30;;
51467;SDS011;37545;45.302;-122.946;2022-10-22T12:39:27;2.08;;;0.47;;
51467;SDS011;37545;45.302;-122.946;2022-10-22T12:41:57;1.25;;;0.30;;
51467;SDS011;37545;45.302;-122.946;2022-10-22T12:44:26;3.65;;;1.17;;
51467;SDS011;37545;45.302;-122.946;2022-10-22T12:46:56;3.55;;;2.00;;
51467;SDS011;37545;45.302;-122.946;2022-10-22T12:49:27;3.30;;;1.10;;
51467;SDS011;37545;45.302;-122.946;2022-10-22T12:52:02;3.95;;;1.17;;
51467;SDS011;37545;45.302;-122.946;2022-10-22T12:54:33;1.73;;;1.08;;
51467;SDS011;37545;45.302;-122.946;2022-10-22T12:57:02;3.03;;;0.80;;
51467;SDS011;37545;45.302;-122.946;2022-10-22T12:59:31;4.43;;;0.93;;
51467;SDS011;37545;45.302;-122.946;2022-10-22T13:02:04;1.95;;;0.50;;
51467;SDS011;37545;45.302;-122.946;2022-10-22T13:05:01;1.95;;;0.70;;
51467;SDS011;37545;45.302;-122.946;2022-10-22T13:07:40;4.65;;;0.85;;
51467;SDS011;37545;45.302;-122.946;2022-10-22T13:10:13;0.57;;;0.40;;
51467;SDS011;37545;45.302;-122.946;2022-10-22T13:12:48;0.93;;;0.52;;
51467;SDS011;37545;45.302;-122.946;2022-10-22T13:15:19;0.57;;;0.50;;
51467;SDS011;37545;45.302;-122.946;2022-10-22T13:17:59;1.98;;;0.60;;
51467;SDS011;37545;45.302;-122.946;2022-10-22T13:20:29;0.40;;;0.40;;
51467;SDS011;37545;45.302;-122.946;2022-10-22T13:23:02;2.45;;;0.43;;
51467;SDS011;37545;45.302;-122.946;2022-10-22T13:25:32;0.47;;;0.35;;
51467;SDS011;37545;45.302;-122.946;2022-10-22T13:28:02;0.38;;;0.38;;
51467;SDS011;37545;45.302;-122.946;2022-10-22T13:30:50;0.40;;;0.30;;
51467;SDS011;37545;45.302;-122.946;2022-10-22T13:33:23;0.32;;;0.20;;
51467;SDS011;37545;45.302;-122.946;2022-10-22T13:35:53;0.40;;;0.32;;
51467;SDS011;37545;45.302;-122.946;2022-10-22T13:38:23;0.20;;;0.20;;
51467;SDS011;37545;45.302;-122.946;2022-10-22T13:40:53;1.35;;;0.43;;
51467;SDS011;37545;45.302;-122.946;2022-10-22T13:43:23;0.38;;;0.30;;
51467;SDS011;37545;45.302;-122.946;2022-10-22T13:45:53;0.82;;;0.25;;
51467;SDS011;37545;45.302;-122.946;2022-10-22T13:48:25;1.50;;;0.22;;
51467;SDS011;37545;45.302;-122.946;2022-10-22T13:50:56;0.90;;;0.47;;
51467;SDS011;37545;45.302;-122.946;2022-10-22T13:53:25;0.40;;;0.13;;
51467;SDS011;37545;45.302;-122.946;2022-10-22T13:55:55;1.30;;;0.47;;
51467;SDS011;37545;45.302;-122.946;2022-10-22T13:58:24;0.10;;;0.10;;
51467;SDS011;37545;45.302;-122.946;2022-10-22T14:00:53;1.02;;;0.30;;
51467;SDS011;37545;45.302;-122.946;2022-10-22T14:03:26;0.63;;;0.20;;
51467;SDS011;37545;45.302;-122.946;2022-10-22T14:05:57;0.40;;;0.40;;
51467;SDS011;37545;45.302;-122.946;2022-10-22T14:08:27;0.98;;;0.25;;
51467;SDS011;37545;45.302;-122.946;2022-10-22T14:10:55;0.30;;;0.20;;
51467;SDS011;37545;45.302;-122.946;2022-10-22T14:13:24;0.22;;;0.22;;
51467;SDS011;37545;45.302;-122.946;2022-10-22T14:15:53;0.57;;;0.35;;
51467;SDS011;37545;45.302;-122.946;2022-10-22T14:18:22;0.57;;;0.50;;
51467;SDS011;37545;45.302;-122.946;2022-10-22T14:20:56;0.32;;;0.30;;
51467;SDS011;37545;45.302;-122.946;2022-10-22T14:23:29;0.68;;;0.38;;
51467;SDS011;37545;45.302;-122.946;2022-10-22T14:25:59;1.45;;;0.15;;
51467;SDS011;37545;45.302;-122.946;2022-10-22T14:28:28;1.55;;;0.10;;
51467;SDS011;37545;45.302;-122.946;2022-10-22T14:30:56;0.28;;;0.25;;
51467;SDS011;37545;45.302;-122.946;2022-10-22T14:33:27;0.10;;;0.10;;
51467;SDS011;37545;45.302;-122.946;2022-10-22T14:35:57;1.33;;;0.10;;
51467;SDS011;37545;45.302;-122.946;2022-10-22T14:38:26;0.25;;;0.20;;
51467;SDS011;37545;45.302;-122.946;2022-10-22T14:40:55;0.10;;;0.10;;
51467;SDS011;37545;45.302;-122.946;2022-10-22T14:43:26;0.10;;;0.10;;
51467;SDS011;37545;45.302;-122.946;2022-10-22T14:45:56;0.08;;;0.08;;
51467;SDS011;37545;45.302;-122.946;2022-10-22T14:48:26;0.10;;;0.10;;
51467;SDS011;37545;45.302;-122.946;2022-10-22T14:50:55;0.10;;;0.10;;
51467;SDS011;37545;45.302;-122.946;2022-10-22T14:53:24;0.45;;;0.20;;
51467;SDS011;37545;45.302;-122.946;2022-10-22T14:55:52;0.88;;;0.60;;